sensor_id;sensor_type;location;lat;lon;timestamp;P1;durP1;ratioP1;P2;durP2;ratioP2
17261;SDS011;9873;52.236;21.002;2023-11-19T00:04:50;58.33;;;23.97;;
17261;SDS011;9873;52.236;21.002;2023-11-19T00:14:58;62.53;;;26.77;;
17261;SDS011;9873;52.236;21.002;2023-11-19T00:25:02;51.97;;;23.60;;
17261;SDS011;9873;52.236;21.002;2023-11-19T00:35:08;62.80;;;28.00;;
17261;SDS011;9873;52.236;21.002;2023-11-19T00:45:13;65.10;;;24.90;;
17261;SDS011;9873;52.236;21.002;2023-11-19T00:55:16;65.10;;;25.77;;
17261;SDS011;9873;52.236;21.002;2023-11-19T01:05:21;61.93;;;24.20;;
17261;SDS011;9873;52.236;21.002;2023-11-19T01:15:25;65.50;;;25.40;;
17261;SDS011;9873;52.236;21.002;2023-11-19T01:25:29;59.03;;;24.67;;
17261;SDS011;9873;52.236;21.002;2023-11-19T01:35:34;66.93;;;26.83;;
17261;SDS011;9873;52.236;21.002;2023-11-19T01:45:37;65.70;;;27.33;;
17261;SDS011;9873;52.236;21.002;2023-11-19T01:55:42;70.57;;;29.33;;
17261;SDS011;9873;52.236;21.002;2023-11-19T02:05:47;65.57;;;27.00;;
17261;SDS011;9873;52.236;21.002;2023-11-19T02:15:56;55.93;;;23.57;;
17261;SDS011;9873;52.236;21.002;2023-11-19T02:36:22;48.37;;;19.90;;
17261;SDS011;9873;52.236;21.002;2023-11-19T02:46:30;57.30;;;22.83;;
17261;SDS011;9873;52.236;21.002;2023-11-19T02:56:33;53.50;;;23.23;;
17261;SDS011;9873;52.236;21.002;2023-11-19T03:06:41;58.53;;;23.60;;
17261;SDS011;9873;52.236;21.002;2023-11-19T03:16:46;59.40;;;24.70;;
17261;SDS011;9873;52.236;21.002;2023-11-19T03:26:50;57.53;;;24.97;;
17261;SDS011;9873;52.236;21.002;2023-11-19T03:36:54;56.27;;;21.70;;
17261;SDS011;9873;52.236;21.002;2023-11-19T03:47:01;43.70;;;19.27;;
17261;SDS011;9873;52.236;21.002;2023-11-19T03:57:08;40.47;;;17.13;;
17261;SDS011;9873;52.236;21.002;2023-11-19T04:07:14;44.23;;;18.60;;
17261;SDS011;9873;52.236;21.002;2023-11-19T04:17:23;44.60;;;19.67;;
17261;SDS011;9873;52.236;21.002;2023-11-19T04:27:29;50.47;;;21.03;;
17261;SDS011;9873;52.236;21.002;2023-11-19T04:37:32;37.00;;;18.37;;
17261;SDS011;9873;52.236;21.002;2023-11-19T04:47:37;48.40;;;20.33;;
17261;SDS011;9873;52.236;21.002;2023-11-19T04:57:44;46.23;;;20.37;;
17261;SDS011;9873;52.236;21.002;2023-11-19T05:07:46;47.07;;;19.90;;
17261;SDS011;9873;52.236;21.002;2023-11-19T05:17:51;52.20;;;22.10;;
17261;SDS011;9873;52.236;21.002;2023-11-19T05:27:56;50.60;;;21.57;;
17261;SDS011;9873;52.236;21.002;2023-11-19T05:37:58;49.57;;;21.10;;
17261;SDS011;9873;52.236;21.002;2023-11-19T05:48:01;40.30;;;16.67;;
17261;SDS011;9873;52.236;21.002;2023-11-19T05:58:09;37.33;;;14.80;;
17261;SDS011;9873;52.236;21.002;2023-11-19T06:08:20;34.90;;;15.17;;
17261;SDS011;9873;52.236;21.002;2023-11-19T06:18:24;28.53;;;13.67;;
17261;SDS011;9873;52.236;21.002;2023-11-19T06:28:27;23.47;;;10.43;;
17261;SDS011;9873;52.236;21.002;2023-11-19T06:38:32;24.13;;;12.60;;
17261;SDS011;9873;52.236;21.002;2023-11-19T06:48:37;16.30;;;9.43;;
17261;SDS011;9873;52.236;21.002;2023-11-19T06:58:43;17.37;;;10.53;;
17261;SDS011;9873;52.236;21.002;2023-11-19T07:08:45;18.17;;;12.53;;
17261;SDS011;9873;52.236;21.002;2023-11-19T07:18:49;18.57;;;9.00;;
17261;SDS011;9873;52.236;21.002;2023-11-19T07:28:54;15.67;;;9.57;;
17261;SDS011;9873;52.236;21.002;2023-11-19T07:38:58;15.40;;;9.07;;
17261;SDS011;9873;52.236;21.002;2023-11-19T07:49:03;16.10;;;8.43;;
17261;SDS011;9873;52.236;21.002;2023-11-19T07:59:11;17.67;;;9.63;;
17261;SDS011;9873;52.236;21.002;2023-11-19T08:09:17;16.07;;;8.97;;
17261;SDS011;9873;52.236;21.002;2023-11-19T08:19:20;19.33;;;10.27;;
17261;SDS011;9873;52.236;21.002;2023-11-19T08:29:24;21.20;;;10.37;;
17261;SDS011;9873;52.236;21.002;2023-11-19T08:39:31;17.43;;;9.73;;
17261;SDS011;9873;52.236;21.002;2023-11-19T08:49:34;19.93;;;10.40;;
17261;SDS011;9873;52.236;21.002;2023-11-19T08:59:43;19.37;;;10.80;;
17261;SDS011;9873;52.236;21.002;2023-11-19T09:09:47;19.30;;;11.60;;
17261;SDS011;9873;52.236;21.002;2023-11-19T09:19:52;20.10;;;11.53;;
17261;SDS011;9873;52.236;21.002;2023-11-19T09:29:59;21.77;;;15.43;;
17261;SDS011;9873;52.236;21.002;2023-11-19T09:40:05;21.13;;;11.20;;
17261;SDS011;9873;52.236;21.002;2023-11-19T09:50:15;21.43;;;12.57;;
17261;SDS011;9873;52.236;21.002;2023-11-19T10:00:21;23.13;;;13.33;;
17261;SDS011;9873;52.236;21.002;2023-11-19T10:10:25;22.97;;;12.37;;
17261;SDS011;9873;52.236;21.002;2023-11-19T10:20:41;22.83;;;11.50;;
17261;SDS011;9873;52.236;21.002;2023-11-19T10:30:44;23.53;;;12.30;;
17261;SDS011;9873;52.236;21.002;2023-11-19T10:40:58;24.30;;;13.77;;
17261;SDS011;9873;52.236;21.002;2023-11-19T10:51:06;23.27;;;12.90;;
17261;SDS011;9873;52.236;21.002;2023-11-19T11:01:16;20.33;;;11.63;;
17261;SDS011;9873;52.236;21.002;2023-11-19T11:11:29;23.73;;;12.40;;
17261;SDS011;9873;52.236;21.002;2023-11-19T11:21:34;21.50;;;11.47;;
17261;SDS011;9873;52.236;21.002;2023-11-19T11:31:44;20.57;;;11.97;;
17261;SDS011;9873;52.236;21.002;2023-11-19T11:52:24;26.27;;;14.30;;
17261;SDS011;9873;52.236;21.002;2023-11-19T12:02:28;20.97;;;11.30;;
17261;SDS011;9873;52.236;21.002;2023-11-19T12:12:34;25.80;;;14.27;;
17261;SDS011;9873;52.236;21.002;2023-11-19T12:22:38;25.20;;;12.30;;
17261;SDS011;9873;52.236;21.002;2023-11-19T12:32:42;25.57;;;15.13;;
17261;SDS011;9873;52.236;21.002;2023-11-19T12:42:46;23.17;;;13.53;;
17261;SDS011;9873;52.236;21.002;2023-11-19T12:52:55;25.00;;;14.23;;
17261;SDS011;9873;52.236;21.002;2023-11-19T13:02:59;18.90;;;10.17;;
17261;SDS011;9873;52.236;21.002;2023-11-19T13:23:08;24.70;;;14.87;;
17261;SDS011;9873;52.236;21.002;2023-11-19T13:33:12;26.67;;;15.77;;
17261;SDS011;9873;52.236;21.002;2023-11-19T13:43:19;33.13;;;19.00;;
17261;SDS011;9873;52.236;21.002;2023-11-19T13:53:27;35.63;;;18.73;;
17261;SDS011;9873;52.236;21.002;2023-11-19T14:03:29;38.87;;;20.13;;
17261;SDS011;9873;52.236;21.002;2023-11-19T14:13:34;31.57;;;14.90;;
17261;SDS011;9873;52.236;21.002;2023-11-19T14:23:42;39.27;;;19.73;;
17261;SDS011;9873;52.236;21.002;2023-11-19T14:33:50;44.67;;;23.07;;
17261;SDS011;9873;52.236;21.002;2023-11-19T14:43:53;35.83;;;18.17;;
17261;SDS011;9873;52.236;21.002;2023-11-19T14:53:56;36.47;;;17.70;;
17261;SDS011;9873;52.236;21.002;2023-11-19T15:04:03;42.30;;;20.10;;
17261;SDS011;9873;52.236;21.002;2023-11-19T15:14:07;37.00;;;18.23;;
17261;SDS011;9873;52.236;21.002;2023-11-19T15:24:12;34.30;;;18.10;;
17261;SDS011;9873;52.236;21.002;2023-11-19T15:34:18;42.33;;;20.47;;
17261;SDS011;9873;52.236;21.002;2023-11-19T15:44:21;40.40;;;20.23;;
17261;SDS011;9873;52.236;21.002;2023-11-19T15:54:25;40.97;;;20.97;;
17261;SDS011;9873;52.236;21.002;2023-11-19T16:04:32;31.80;;;18.10;;
17261;SDS011;9873;52.236;21.002;2023-11-19T16:14:35;37.87;;;18.27;;
17261;SDS011;9873;52.236;21.002;2023-11-19T16:24:39;33.33;;;16.87;;
17261;SDS011;9873;52.236;21.002;2023-11-19T16:34:45;49.63;;;26.80;;
17261;SDS011;9873;52.236;21.002;2023-11-19T16:44:49;36.67;;;19.33;;
17261;SDS011;9873;52.236;21.002;2023-11-19T16:54:55;42.53;;;19.73;;
17261;SDS011;9873;52.236;21.002;2023-11-19T17:05:01;52.87;;;25.83;;
17261;SDS011;9873;52.236;21.002;2023-11-19T17:15:04;47.53;;;20.67;;
17261;SDS011;9873;52.236;21.002;2023-11-19T17:25:12;45.63;;;21.83;;
17261;SDS011;9873;52.236;21.002;2023-11-19T17:35:17;48.07;;;20.77;;
17261;SDS011;9873;52.236;21.002;2023-11-19T17:45:21;45.73;;;22.23;;
17261;SDS011;9873;52.236;21.002;2023-11-19T17:55:24;39.00;;;20.67;;
17261;SDS011;9873;52.236;21.002;2023-11-19T18:05:26;35.13;;;18.33;;
17261;SDS011;9873;52.236;21.002;2023-11-19T18:15:31;43.50;;;21.97;;
17261;SDS011;9873;52.236;21.002;2023-11-19T18:25:40;46.27;;;23.27;;
17261;SDS011;9873;52.236;21.002;2023-11-19T18:35:48;50.17;;;26.70;;
17261;SDS011;9873;52.236;21.002;2023-11-19T18:45:53;46.50;;;21.77;;
17261;SDS011;9873;52.236;21.002;2023-11-19T18:56:00;43.87;;;23.50;;
17261;SDS011;9873;52.236;21.002;2023-11-19T19:06:05;40.00;;;19.83;;
17261;SDS011;9873;52.236;21.002;2023-11-19T19:16:12;41.80;;;21.60;;
17261;SDS011;9873;52.236;21.002;2023-11-19T19:26:19;34.90;;;16.80;;
17261;SDS011;9873;52.236;21.002;2023-11-19T19:36:24;39.47;;;19.00;;
17261;SDS011;9873;52.236;21.002;2023-11-19T19:46:29;44.33;;;20.93;;
17261;SDS011;9873;52.236;21.002;2023-11-19T19:56:33;41.13;;;20.10;;
17261;SDS011;9873;52.236;21.002;2023-11-19T20:06:38;40.07;;;20.67;;
17261;SDS011;9873;52.236;21.002;2023-11-19T20:16:41;42.07;;;20.23;;
17261;SDS011;9873;52.236;21.002;2023-11-19T20:26:47;35.33;;;18.30;;
17261;SDS011;9873;52.236;21.002;2023-11-19T20:37:00;39.77;;;20.07;;
17261;SDS011;9873;52.236;21.002;2023-11-19T20:47:05;36.30;;;17.93;;
17261;SDS011;9873;52.236;21.002;2023-11-19T20:57:11;42.47;;;22.37;;
17261;SDS011;9873;52.236;21.002;2023-11-19T21:07:15;36.23;;;17.40;;
17261;SDS011;9873;52.236;21.002;2023-11-19T21:17:24;42.53;;;21.87;;
17261;SDS011;9873;52.236;21.002;2023-11-19T21:27:33;36.43;;;16.40;;
17261;SDS011;9873;52.236;21.002;2023-11-19T21:37:38;29.73;;;16.37;;
17261;SDS011;9873;52.236;21.002;2023-11-19T21:47:40;33.50;;;17.67;;
17261;SDS011;9873;52.236;21.002;2023-11-19T21:57:45;38.60;;;23.83;;
17261;SDS011;9873;52.236;21.002;2023-11-19T22:07:50;34.43;;;17.90;;
17261;SDS011;9873;52.236;21.002;2023-11-19T22:17:55;26.53;;;14.83;;
17261;SDS011;9873;52.236;21.002;2023-11-19T22:28:00;35.03;;;20.43;;
17261;SDS011;9873;52.236;21.002;2023-11-19T22:38:05;24.97;;;14.30;;
17261;SDS011;9873;52.236;21.002;2023-11-19T22:48:10;29.93;;;15.20;;
17261;SDS011;9873;52.236;21.002;2023-11-19T22:58:13;30.77;;;16.33;;
17261;SDS011;9873;52.236;21.002;2023-11-19T23:08:17;35.37;;;17.53;;
17261;SDS011;9873;52.236;21.002;2023-11-19T23:18:20;34.20;;;16.73;;
17261;SDS011;9873;52.236;21.002;2023-11-19T23:28:25;32.43;;;16.03;;
17261;SDS011;9873;52.236;21.002;2023-11-19T23:38:27;29.93;;;15.77;;
17261;SDS011;9873;52.236;21.002;2023-11-19T23:48:31;39.23;;;18.03;;
17261;SDS011;9873;52.236;21.002;2023-11-19T23:58:34;31.83;;;15.80;;
